sensor_id;sensor_type;location;lat;lon;timestamp;pressure;altitude;pressure_sealevel;temperature;humidity
55517;BME280;41724;51.176;-0.708;2022-09-28T00:02:26;99570.77;;;13.33;47.75
55517;BME280;41724;51.176;-0.708;2022-09-28T00:04:54;99570.30;;;13.75;47.93
55517;BME280;41724;51.176;-0.708;2022-09-28T00:07:21;99568.68;;;13.36;47.72
55517;BME280;41724;51.176;-0.708;2022-09-28T00:09:48;99568.29;;;13.46;47.77
55517;BME280;41724;51.176;-0.708;2022-09-28T00:12:16;99569.26;;;13.54;48.23
55517;BME280;41724;51.176;-0.708;2022-09-28T00:14:43;99568.75;;;13.09;48.57
55517;BME280;41724;51.176;-0.708;2022-09-28T00:17:10;99571.65;;;13.43;48.07
55517;BME280;41724;51.176;-0.708;2022-09-28T00:19:37;99573.39;;;13.47;47.78
55517;BME280;41724;51.176;-0.708;2022-09-28T00:22:05;99569.50;;;13.36;47.94
55517;BME280;41724;51.176;-0.708;2022-09-28T00:24:32;99567.52;;;13.63;47.79
55517;BME280;41724;51.176;-0.708;2022-09-28T00:26:59;99562.48;;;13.78;47.86
55517;BME280;41724;51.176;-0.708;2022-09-28T00:29:28;99564.13;;;13.21;47.91
55517;BME280;41724;51.176;-0.708;2022-09-28T00:31:57;99567.89;;;13.08;48.33
55517;BME280;41724;51.176;-0.708;2022-09-28T00:34:25;99566.10;;;13.31;47.66
55517;BME280;41724;51.176;-0.708;2022-09-28T00:36:52;99567.48;;;12.99;48.28
55517;BME280;41724;51.176;-0.708;2022-09-28T00:39:19;99562.56;;;13.03;47.67
55517;BME280;41724;51.176;-0.708;2022-09-28T00:41:47;99557.20;;;12.95;48.58
55517;BME280;41724;51.176;-0.708;2022-09-28T00:44:47;99560.01;;;12.82;48.92
55517;BME280;41724;51.176;-0.708;2022-09-28T00:47:27;99558.75;;;12.90;48.21
55517;BME280;41724;51.176;-0.708;2022-09-28T00:50:02;99558.56;;;12.47;48.64
55517;BME280;41724;51.176;-0.708;2022-09-28T00:52:33;99557.41;;;13.11;48.71
55517;BME280;41724;51.176;-0.708;2022-09-28T00:55:05;99562.65;;;12.78;48.54
55517;BME280;41724;51.176;-0.708;2022-09-28T00:57:35;99561.15;;;12.87;48.17
55517;BME280;41724;51.176;-0.708;2022-09-28T01:00:04;99565.53;;;12.81;48.64
55517;BME280;41724;51.176;-0.708;2022-09-28T01:02:31;99565.18;;;13.02;48.87
55517;BME280;41724;51.176;-0.708;2022-09-28T01:04:59;99562.34;;;12.88;48.25
55517;BME280;41724;51.176;-0.708;2022-09-28T01:07:27;99562.70;;;12.55;49.32
55517;BME280;41724;51.176;-0.708;2022-09-28T01:09:54;99560.10;;;12.40;49.52
55517;BME280;41724;51.176;-0.708;2022-09-28T01:12:21;99556.19;;;12.58;48.68
55517;BME280;41724;51.176;-0.708;2022-09-28T01:14:49;99560.85;;;12.56;49.30
55517;BME280;41724;51.176;-0.708;2022-09-28T01:17:24;99561.31;;;12.36;49.17
55517;BME280;41724;51.176;-0.708;2022-09-28T01:20:06;99564.92;;;12.21;48.94
55517;BME280;41724;51.176;-0.708;2022-09-28T01:23:05;99562.11;;;12.02;48.12
55517;BME280;41724;51.176;-0.708;2022-09-28T01:25:40;99561.33;;;11.94;48.62
55517;BME280;41724;51.176;-0.708;2022-09-28T01:28:11;99558.19;;;11.73;49.85
55517;BME280;41724;51.176;-0.708;2022-09-28T01:30:45;99560.17;;;11.94;49.72
55517;BME280;41724;51.176;-0.708;2022-09-28T01:33:21;99560.70;;;12.05;50.35
55517;BME280;41724;51.176;-0.708;2022-09-28T01:35:52;99563.60;;;11.63;48.70
55517;BME280;41724;51.176;-0.708;2022-09-28T01:38:28;99562.91;;;11.51;48.75
55517;BME280;41724;51.176;-0.708;2022-09-28T01:40:57;99563.95;;;11.69;48.67
55517;BME280;41724;51.176;-0.708;2022-09-28T01:43:26;99559.26;;;11.73;49.09
55517;BME280;41724;51.176;-0.708;2022-09-28T01:45:57;99556.52;;;11.45;48.57
55517;BME280;41724;51.176;-0.708;2022-09-28T01:48:31;99556.64;;;11.34;49.06
55517;BME280;41724;51.176;-0.708;2022-09-28T01:51:04;99554.26;;;11.54;48.73
55517;BME280;41724;51.176;-0.708;2022-09-28T01:53:38;99551.68;;;11.34;48.42
55517;BME280;41724;51.176;-0.708;2022-09-28T01:56:10;99545.27;;;11.15;49.12
55517;BME280;41724;51.176;-0.708;2022-09-28T01:58:41;99544.82;;;10.91;49.32
55517;BME280;41724;51.176;-0.708;2022-09-28T02:01:15;99548.38;;;10.63;50.00
55517;BME280;41724;51.176;-0.708;2022-09-28T02:03:49;99548.73;;;10.73;50.19
55517;BME280;41724;51.176;-0.708;2022-09-28T02:06:23;99547.00;;;10.51;50.14
55517;BME280;41724;51.176;-0.708;2022-09-28T02:08:55;99549.83;;;10.73;49.97
55517;BME280;41724;51.176;-0.708;2022-09-28T02:11:25;99549.39;;;10.96;48.69
55517;BME280;41724;51.176;-0.708;2022-09-28T02:13:58;99551.50;;;11.01;48.62
55517;BME280;41724;51.176;-0.708;2022-09-28T02:16:30;99554.24;;;11.30;48.49
55517;BME280;41724;51.176;-0.708;2022-09-28T02:19:00;99550.09;;;10.95;48.61
55517;BME280;41724;51.176;-0.708;2022-09-28T02:21:32;99553.59;;;10.54;49.22
55517;BME280;41724;51.176;-0.708;2022-09-28T02:24:08;99555.38;;;10.67;49.19
55517;BME280;41724;51.176;-0.708;2022-09-28T02:26:40;99558.01;;;10.60;48.91
55517;BME280;41724;51.176;-0.708;2022-09-28T02:29:08;99558.32;;;10.66;48.11
55517;BME280;41724;51.176;-0.708;2022-09-28T02:31:36;99555.18;;;10.75;47.85
55517;BME280;41724;51.176;-0.708;2022-09-28T02:34:03;99551.33;;;11.07;47.40
55517;BME280;41724;51.176;-0.708;2022-09-28T02:36:31;99551.12;;;10.77;47.39
55517;BME280;41724;51.176;-0.708;2022-09-28T02:38:59;99552.48;;;10.64;47.61
55517;BME280;41724;51.176;-0.708;2022-09-28T02:41:37;99558.04;;;10.59;47.91
55517;BME280;41724;51.176;-0.708;2022-09-28T02:44:17;99559.09;;;10.80;47.38
55517;BME280;41724;51.176;-0.708;2022-09-28T02:46:52;99560.88;;;10.49;47.30
55517;BME280;41724;51.176;-0.708;2022-09-28T02:49:29;99560.72;;;10.77;47.08
55517;BME280;41724;51.176;-0.708;2022-09-28T02:52:09;99560.33;;;10.50;47.53
55517;BME280;41724;51.176;-0.708;2022-09-28T02:54:54;99565.85;;;10.20;47.49
55517;BME280;41724;51.176;-0.708;2022-09-28T02:57:33;99563.77;;;10.25;47.29
55517;BME280;41724;51.176;-0.708;2022-09-28T03:00:05;99569.11;;;10.25;50.10
55517;BME280;41724;51.176;-0.708;2022-09-28T03:02:39;99567.63;;;9.89;50.26
55517;BME280;41724;51.176;-0.708;2022-09-28T03:05:14;99571.06;;;9.87;52.34
55517;BME280;41724;51.176;-0.708;2022-09-28T03:07:52;99570.20;;;10.13;51.60
55517;BME280;41724;51.176;-0.708;2022-09-28T03:10:30;99572.89;;;10.02;51.46
55517;BME280;41724;51.176;-0.708;2022-09-28T03:13:01;99577.61;;;10.03;50.77
55517;BME280;41724;51.176;-0.708;2022-09-28T03:15:31;99579.93;;;10.26;50.18
55517;BME280;41724;51.176;-0.708;2022-09-28T03:17:58;99578.30;;;10.53;50.95
55517;BME280;41724;51.176;-0.708;2022-09-28T03:20:27;99573.22;;;10.62;50.43
55517;BME280;41724;51.176;-0.708;2022-09-28T03:22:55;99574.88;;;10.08;52.23
55517;BME280;41724;51.176;-0.708;2022-09-28T03:25:22;99576.94;;;10.25;52.24
55517;BME280;41724;51.176;-0.708;2022-09-28T03:27:49;99577.70;;;10.29;51.12
55517;BME280;41724;51.176;-0.708;2022-09-28T03:30:17;99575.87;;;10.39;48.91
55517;BME280;41724;51.176;-0.708;2022-09-28T03:32:44;99573.43;;;10.70;48.59
55517;BME280;41724;51.176;-0.708;2022-09-28T03:35:11;99574.73;;;10.72;48.99
55517;BME280;41724;51.176;-0.708;2022-09-28T03:37:39;99571.27;;;10.85;48.67
55517;BME280;41724;51.176;-0.708;2022-09-28T03:40:06;99574.64;;;10.64;49.85
55517;BME280;41724;51.176;-0.708;2022-09-28T03:42:35;99574.75;;;10.59;49.41
55517;BME280;41724;51.176;-0.708;2022-09-28T03:45:02;99576.05;;;10.59;49.17
55517;BME280;41724;51.176;-0.708;2022-09-28T03:47:29;99577.33;;;10.75;50.03
55517;BME280;41724;51.176;-0.708;2022-09-28T03:49:56;99585.78;;;10.34;49.72
55517;BME280;41724;51.176;-0.708;2022-09-28T03:52:24;99585.36;;;10.45;49.57
55517;BME280;41724;51.176;-0.708;2022-09-28T03:54:51;99583.42;;;10.25;50.12
55517;BME280;41724;51.176;-0.708;2022-09-28T03:57:18;99582.89;;;10.46;49.18
55517;BME280;41724;51.176;-0.708;2022-09-28T03:59:46;99580.85;;;10.41;49.02
55517;BME280;41724;51.176;-0.708;2022-09-28T04:02:13;99583.28;;;10.62;48.56
55517;BME280;41724;51.176;-0.708;2022-09-28T04:04:40;99585.75;;;10.69;48.82
55517;BME280;41724;51.176;-0.708;2022-09-28T04:07:08;99591.00;;;10.59;48.14
55517;BME280;41724;51.176;-0.708;2022-09-28T04:09:36;99587.75;;;10.68;47.74
55517;BME280;41724;51.176;-0.708;2022-09-28T04:12:03;99588.29;;;10.46;47.77
55517;BME280;41724;51.176;-0.708;2022-09-28T04:14:30;99589.84;;;10.58;48.35
55517;BME280;41724;51.176;-0.708;2022-09-28T04:16:58;99592.13;;;10.42;48.14
55517;BME280;41724;51.176;-0.708;2022-09-28T04:19:25;99597.35;;;10.46;47.93
55517;BME280;41724;51.176;-0.708;2022-09-28T04:21:53;99596.04;;;10.26;49.60
55517;BME280;41724;51.176;-0.708;2022-09-28T04:24:20;99597.39;;;10.23;49.97
55517;BME280;41724;51.176;-0.708;2022-09-28T04:26:48;99600.16;;;10.36;48.79
55517;BME280;41724;51.176;-0.708;2022-09-28T04:29:15;99599.69;;;10.42;49.56
55517;BME280;41724;51.176;-0.708;2022-09-28T04:31:44;99605.16;;;10.30;49.56
55517;BME280;41724;51.176;-0.708;2022-09-28T04:34:13;99603.10;;;10.37;48.75
55517;BME280;41724;51.176;-0.708;2022-09-28T04:36:41;99600.71;;;10.78;48.48
55517;BME280;41724;51.176;-0.708;2022-09-28T04:39:09;99606.90;;;10.53;48.50
55517;BME280;41724;51.176;-0.708;2022-09-28T04:41:37;99601.75;;;10.78;48.12
55517;BME280;41724;51.176;-0.708;2022-09-28T04:44:04;99606.90;;;10.57;47.95
55517;BME280;41724;51.176;-0.708;2022-09-28T04:46:32;99607.48;;;10.76;48.34
55517;BME280;41724;51.176;-0.708;2022-09-28T04:48:59;99606.49;;;10.71;47.97
55517;BME280;41724;51.176;-0.708;2022-09-28T04:51:26;99604.09;;;10.52;47.63
55517;BME280;41724;51.176;-0.708;2022-09-28T04:53:55;99603.04;;;10.73;48.01
55517;BME280;41724;51.176;-0.708;2022-09-28T04:56:22;99604.62;;;10.66;48.60
55517;BME280;41724;51.176;-0.708;2022-09-28T04:58:50;99603.58;;;10.57;48.24
55517;BME280;41724;51.176;-0.708;2022-09-28T05:01:18;99610.05;;;10.33;49.00
55517;BME280;41724;51.176;-0.708;2022-09-28T05:03:46;99608.69;;;10.66;48.91
55517;BME280;41724;51.176;-0.708;2022-09-28T05:06:14;99606.38;;;10.83;48.25
55517;BME280;41724;51.176;-0.708;2022-09-28T05:08:41;99603.96;;;10.60;48.07
55517;BME280;41724;51.176;-0.708;2022-09-28T05:11:11;99606.25;;;10.59;47.51
55517;BME280;41724;51.176;-0.708;2022-09-28T05:13:40;99607.12;;;10.79;47.41
55517;BME280;41724;51.176;-0.708;2022-09-28T05:16:08;99608.00;;;10.66;48.07
55517;BME280;41724;51.176;-0.708;2022-09-28T05:18:36;99611.55;;;10.58;47.71
55517;BME280;41724;51.176;-0.708;2022-09-28T05:21:09;99614.21;;;10.60;48.22
55517;BME280;41724;51.176;-0.708;2022-09-28T05:23:38;99612.88;;;10.26;48.12
55517;BME280;41724;51.176;-0.708;2022-09-28T05:26:06;99615.62;;;10.25;48.45
55517;BME280;41724;51.176;-0.708;2022-09-28T05:28:33;99613.51;;;10.32;47.88
55517;BME280;41724;51.176;-0.708;2022-09-28T05:31:02;99610.54;;;10.82;47.98
55517;BME280;41724;51.176;-0.708;2022-09-28T05:33:31;99608.64;;;10.55;47.90
55517;BME280;41724;51.176;-0.708;2022-09-28T05:35:59;99610.70;;;10.36;47.98
55517;BME280;41724;51.176;-0.708;2022-09-28T05:38:27;99610.66;;;10.14;47.80
55517;BME280;41724;51.176;-0.708;2022-09-28T05:40:55;99610.64;;;10.16;47.93
55517;BME280;41724;51.176;-0.708;2022-09-28T05:43:22;99610.00;;;10.40;47.33
55517;BME280;41724;51.176;-0.708;2022-09-28T05:45:50;99610.91;;;10.58;47.25
55517;BME280;41724;51.176;-0.708;2022-09-28T05:48:17;99614.29;;;10.30;47.65
55517;BME280;41724;51.176;-0.708;2022-09-28T05:50:49;99613.48;;;10.48;48.26
55517;BME280;41724;51.176;-0.708;2022-09-28T05:53:17;99618.05;;;10.25;47.72
55517;BME280;41724;51.176;-0.708;2022-09-28T05:55:44;99619.77;;;10.41;47.95
55517;BME280;41724;51.176;-0.708;2022-09-28T05:58:12;99620.65;;;10.05;48.03
55517;BME280;41724;51.176;-0.708;2022-09-28T06:00:39;99621.37;;;10.04;48.59
55517;BME280;41724;51.176;-0.708;2022-09-28T06:03:09;99620.06;;;10.07;48.67
55517;BME280;41724;51.176;-0.708;2022-09-28T06:05:37;99617.81;;;10.00;48.35
55517;BME280;41724;51.176;-0.708;2022-09-28T06:08:06;99623.78;;;10.01;48.55
55517;BME280;41724;51.176;-0.708;2022-09-28T06:10:34;99627.28;;;9.92;48.16
55517;BME280;41724;51.176;-0.708;2022-09-28T06:13:04;99625.40;;;9.94;48.67
55517;BME280;41724;51.176;-0.708;2022-09-28T06:15:34;99627.09;;;9.96;48.91
55517;BME280;41724;51.176;-0.708;2022-09-28T06:18:02;99622.73;;;10.05;48.49
55517;BME280;41724;51.176;-0.708;2022-09-28T06:20:32;99622.25;;;10.09;47.55
55517;BME280;41724;51.176;-0.708;2022-09-28T06:23:00;99625.57;;;10.32;47.88
55517;BME280;41724;51.176;-0.708;2022-09-28T06:25:27;99623.44;;;9.97;47.54
55517;BME280;41724;51.176;-0.708;2022-09-28T06:27:56;99630.23;;;10.50;47.93
55517;BME280;41724;51.176;-0.708;2022-09-28T06:30:26;99628.81;;;10.10;47.59
55517;BME280;41724;51.176;-0.708;2022-09-28T06:32:54;99631.97;;;10.23;47.50
55517;BME280;41724;51.176;-0.708;2022-09-28T06:35:24;99636.56;;;10.20;47.73
55517;BME280;41724;51.176;-0.708;2022-09-28T06:37:52;99634.79;;;10.14;47.77
55517;BME280;41724;51.176;-0.708;2022-09-28T06:40:20;99633.70;;;10.10;47.71
55517;BME280;41724;51.176;-0.708;2022-09-28T06:42:54;99635.03;;;10.04;48.13
55517;BME280;41724;51.176;-0.708;2022-09-28T06:45:22;99637.66;;;10.32;48.06
55517;BME280;41724;51.176;-0.708;2022-09-28T06:47:53;99636.16;;;10.09;47.90
55517;BME280;41724;51.176;-0.708;2022-09-28T06:50:21;99638.61;;;9.88;47.75
55517;BME280;41724;51.176;-0.708;2022-09-28T06:52:50;99643.59;;;9.96;48.36
55517;BME280;41724;51.176;-0.708;2022-09-28T06:55:17;99647.52;;;10.20;48.34
55517;BME280;41724;51.176;-0.708;2022-09-28T06:57:44;99645.83;;;10.09;49.20
55517;BME280;41724;51.176;-0.708;2022-09-28T07:00:13;99647.52;;;10.54;48.72
55517;BME280;41724;51.176;-0.708;2022-09-28T07:02:40;99649.57;;;10.63;49.33
55517;BME280;41724;51.176;-0.708;2022-09-28T07:05:10;99651.39;;;10.59;48.81
55517;BME280;41724;51.176;-0.708;2022-09-28T07:07:38;99652.83;;;10.78;48.80
55517;BME280;41724;51.176;-0.708;2022-09-28T07:10:07;99651.99;;;10.83;48.52
55517;BME280;41724;51.176;-0.708;2022-09-28T07:10:09;99651.40;;;10.84;48.51
55517;BME280;41724;51.176;-0.708;2022-09-28T07:12:36;99654.36;;;10.80;49.12
55517;BME280;41724;51.176;-0.708;2022-09-28T07:15:04;99658.41;;;10.86;49.33
55517;BME280;41724;51.176;-0.708;2022-09-28T07:17:32;99654.69;;;11.27;50.42
55517;BME280;41724;51.176;-0.708;2022-09-28T07:19:59;99651.73;;;11.01;49.94
55517;BME280;41724;51.176;-0.708;2022-09-28T07:22:26;99652.15;;;11.08;51.35
55517;BME280;41724;51.176;-0.708;2022-09-28T07:24:54;99653.31;;;11.07;51.72
55517;BME280;41724;51.176;-0.708;2022-09-28T07:27:21;99650.66;;;10.98;51.03
55517;BME280;41724;51.176;-0.708;2022-09-28T07:29:48;99650.94;;;11.63;50.71
55517;BME280;41724;51.176;-0.708;2022-09-28T07:32:16;99643.38;;;11.52;50.48
55517;BME280;41724;51.176;-0.708;2022-09-28T07:34:43;99642.47;;;11.71;50.04
55517;BME280;41724;51.176;-0.708;2022-09-28T07:37:11;99641.49;;;11.88;50.37
55517;BME280;41724;51.176;-0.708;2022-09-28T07:39:38;99640.99;;;11.89;50.51
55517;BME280;41724;51.176;-0.708;2022-09-28T07:42:05;99641.76;;;12.01;50.80
55517;BME280;41724;51.176;-0.708;2022-09-28T07:44:32;99648.07;;;12.10;50.40
55517;BME280;41724;51.176;-0.708;2022-09-28T07:46:59;99644.89;;;12.17;50.99
55517;BME280;41724;51.176;-0.708;2022-09-28T07:49:27;99649.01;;;12.11;51.51
55517;BME280;41724;51.176;-0.708;2022-09-28T07:51:54;99651.76;;;11.98;51.80
55517;BME280;41724;51.176;-0.708;2022-09-28T07:54:21;99652.61;;;12.14;51.66
55517;BME280;41724;51.176;-0.708;2022-09-28T07:56:48;99652.36;;;11.96;51.90
55517;BME280;41724;51.176;-0.708;2022-09-28T07:59:16;99652.48;;;12.44;51.44
55517;BME280;41724;51.176;-0.708;2022-09-28T08:01:44;99653.55;;;11.98;51.70
55517;BME280;41724;51.176;-0.708;2022-09-28T08:04:10;99652.94;;;12.17;51.75
55517;BME280;41724;51.176;-0.708;2022-09-28T08:06:38;99651.98;;;12.36;51.29
55517;BME280;41724;51.176;-0.708;2022-09-28T08:09:06;99650.14;;;12.47;51.79
55517;BME280;41724;51.176;-0.708;2022-09-28T08:11:33;99651.96;;;12.28;51.74
55517;BME280;41724;51.176;-0.708;2022-09-28T08:14:00;99653.49;;;12.47;52.13
55517;BME280;41724;51.176;-0.708;2022-09-28T08:16:27;99654.41;;;12.52;52.40
55517;BME280;41724;51.176;-0.708;2022-09-28T08:18:54;99653.68;;;12.56;51.38
55517;BME280;41724;51.176;-0.708;2022-09-28T08:21:22;99658.64;;;11.68;53.88
55517;BME280;41724;51.176;-0.708;2022-09-28T08:23:49;99656.34;;;11.92;53.89
55517;BME280;41724;51.176;-0.708;2022-09-28T08:26:16;99654.70;;;11.85;55.17
55517;BME280;41724;51.176;-0.708;2022-09-28T08:28:44;99650.88;;;12.35;53.62
55517;BME280;41724;51.176;-0.708;2022-09-28T08:31:11;99651.83;;;12.50;53.15
55517;BME280;41724;51.176;-0.708;2022-09-28T08:33:39;99651.29;;;12.78;52.72
55517;BME280;41724;51.176;-0.708;2022-09-28T08:36:08;99649.83;;;12.72;52.97
55517;BME280;41724;51.176;-0.708;2022-09-28T08:38:35;99646.39;;;13.08;52.25
55517;BME280;41724;51.176;-0.708;2022-09-28T08:41:11;99644.45;;;13.16;52.43
55517;BME280;41724;51.176;-0.708;2022-09-28T08:43:56;99651.99;;;12.23;52.96
55517;BME280;41724;51.176;-0.708;2022-09-28T08:46:29;99650.20;;;12.59;53.01
55517;BME280;41724;51.176;-0.708;2022-09-28T08:49:00;99648.15;;;12.87;53.51
55517;BME280;41724;51.176;-0.708;2022-09-28T08:51:34;99644.17;;;12.97;53.06
55517;BME280;41724;51.176;-0.708;2022-09-28T08:54:07;99642.29;;;14.06;51.16
55517;BME280;41724;51.176;-0.708;2022-09-28T08:56:40;99644.77;;;13.07;51.79
55517;BME280;41724;51.176;-0.708;2022-09-28T08:59:11;99643.24;;;13.53;51.59
55517;BME280;41724;51.176;-0.708;2022-09-28T09:01:46;99652.27;;;13.96;50.62
55517;BME280;41724;51.176;-0.708;2022-09-28T09:04:14;99653.73;;;12.95;53.09
55517;BME280;41724;51.176;-0.708;2022-09-28T09:07:00;99652.92;;;13.72;51.76
55517;BME280;41724;51.176;-0.708;2022-09-28T09:09:44;99650.92;;;13.87;51.27
55517;BME280;41724;51.176;-0.708;2022-09-28T09:12:29;99644.50;;;14.15;50.75
55517;BME280;41724;51.176;-0.708;2022-09-28T09:15:41;99642.36;;;14.11;50.17
55517;BME280;41724;51.176;-0.708;2022-09-28T09:18:22;99646.94;;;13.98;50.97
55517;BME280;41724;51.176;-0.708;2022-09-28T09:20:55;99642.42;;;14.11;50.33
55517;BME280;41724;51.176;-0.708;2022-09-28T09:23:35;99646.41;;;13.91;51.07
55517;BME280;41724;51.176;-0.708;2022-09-28T09:26:11;99645.91;;;13.41;50.91
55517;BME280;41724;51.176;-0.708;2022-09-28T09:28:56;99644.49;;;13.16;52.25
55517;BME280;41724;51.176;-0.708;2022-09-28T09:31:36;99637.31;;;14.15;48.07
55517;BME280;41724;51.176;-0.708;2022-09-28T09:34:22;99638.15;;;14.71;48.32
55517;BME280;41724;51.176;-0.708;2022-09-28T09:37:09;99637.14;;;14.47;47.54
55517;BME280;41724;51.176;-0.708;2022-09-28T09:39:47;99640.04;;;14.76;47.80
55517;BME280;41724;51.176;-0.708;2022-09-28T09:42:38;99640.19;;;15.06;47.26
55517;BME280;41724;51.176;-0.708;2022-09-28T09:45:23;99642.69;;;14.78;47.85
55517;BME280;41724;51.176;-0.708;2022-09-28T09:47:58;99638.13;;;14.84;47.26
55517;BME280;41724;51.176;-0.708;2022-09-28T09:50:33;99636.27;;;15.56;47.19
55517;BME280;41724;51.176;-0.708;2022-09-28T09:53:05;99640.82;;;15.46;46.65
55517;BME280;41724;51.176;-0.708;2022-09-28T09:55:41;99637.08;;;16.10;44.56
55517;BME280;41724;51.176;-0.708;2022-09-28T09:58:14;99634.59;;;16.98;43.80
55517;BME280;41724;51.176;-0.708;2022-09-28T10:00:47;99635.19;;;16.78;43.96
55517;BME280;41724;51.176;-0.708;2022-09-28T10:03:21;99647.01;;;17.23;42.56
55517;BME280;41724;51.176;-0.708;2022-09-28T10:05:56;99638.13;;;16.67;43.07
55517;BME280;41724;51.176;-0.708;2022-09-28T10:08:27;99634.02;;;17.01;42.29
55517;BME280;41724;51.176;-0.708;2022-09-28T10:11:06;99637.80;;;17.02;42.07
55517;BME280;41724;51.176;-0.708;2022-09-28T10:13:35;99635.88;;;16.39;42.81
55517;BME280;41724;51.176;-0.708;2022-09-28T10:16:04;99632.10;;;16.10;42.42
55517;BME280;41724;51.176;-0.708;2022-09-28T10:18:31;99629.07;;;17.00;41.80
55517;BME280;41724;51.176;-0.708;2022-09-28T10:20:59;99632.35;;;16.97;40.61
55517;BME280;41724;51.176;-0.708;2022-09-28T10:23:29;99630.42;;;16.61;41.90
55517;BME280;41724;51.176;-0.708;2022-09-28T10:26:03;99632.95;;;17.42;41.27
55517;BME280;41724;51.176;-0.708;2022-09-28T10:28:34;99625.72;;;16.87;41.09
55517;BME280;41724;51.176;-0.708;2022-09-28T10:31:33;99632.79;;;16.73;41.22
55517;BME280;41724;51.176;-0.708;2022-09-28T10:34:01;99633.33;;;17.21;41.78
55517;BME280;41724;51.176;-0.708;2022-09-28T10:36:28;99630.47;;;17.32;39.96
55517;BME280;41724;51.176;-0.708;2022-09-28T10:38:55;99629.14;;;16.82;40.51
55517;BME280;41724;51.176;-0.708;2022-09-28T10:41:22;99632.09;;;17.37;40.59
55517;BME280;41724;51.176;-0.708;2022-09-28T10:43:53;99625.90;;;17.71;39.28
55517;BME280;41724;51.176;-0.708;2022-09-28T10:46:22;99632.26;;;17.31;40.77
55517;BME280;41724;51.176;-0.708;2022-09-28T10:48:52;99627.31;;;17.47;40.75
55517;BME280;41724;51.176;-0.708;2022-09-28T10:51:38;99631.09;;;17.12;40.32
55517;BME280;41724;51.176;-0.708;2022-09-28T10:54:13;99626.49;;;17.73;39.42
55517;BME280;41724;51.176;-0.708;2022-09-28T10:56:41;99620.34;;;18.03;39.23
55517;BME280;41724;51.176;-0.708;2022-09-28T10:59:34;99621.36;;;18.07;36.76
55517;BME280;41724;51.176;-0.708;2022-09-28T11:02:08;99619.02;;;18.09;37.27
55517;BME280;41724;51.176;-0.708;2022-09-28T11:04:49;99621.64;;;17.99;38.07
55517;BME280;41724;51.176;-0.708;2022-09-28T11:07:19;99623.20;;;18.39;38.04
55517;BME280;41724;51.176;-0.708;2022-09-28T11:09:47;99627.61;;;17.59;37.00
55517;BME280;41724;51.176;-0.708;2022-09-28T11:12:18;99632.02;;;18.53;35.74
55517;BME280;41724;51.176;-0.708;2022-09-28T11:14:47;99625.99;;;18.38;35.70
55517;BME280;41724;51.176;-0.708;2022-09-28T11:17:22;99626.16;;;18.94;35.29
55517;BME280;41724;51.176;-0.708;2022-09-28T11:19:50;99631.74;;;18.00;35.18
55517;BME280;41724;51.176;-0.708;2022-09-28T11:22:23;99628.43;;;17.89;37.16
55517;BME280;41724;51.176;-0.708;2022-09-28T11:24:51;99625.69;;;18.92;36.18
55517;BME280;41724;51.176;-0.708;2022-09-28T11:27:38;99623.48;;;18.90;35.47
55517;BME280;41724;51.176;-0.708;2022-09-28T11:30:16;99624.40;;;18.58;35.04
55517;BME280;41724;51.176;-0.708;2022-09-28T11:32:50;99624.21;;;18.80;33.11
55517;BME280;41724;51.176;-0.708;2022-09-28T11:35:21;99626.91;;;19.25;33.42
55517;BME280;41724;51.176;-0.708;2022-09-28T11:38:02;99625.21;;;19.23;32.06
55517;BME280;41724;51.176;-0.708;2022-09-28T11:40:43;99622.59;;;18.75;32.28
55517;BME280;41724;51.176;-0.708;2022-09-28T11:43:23;99627.35;;;17.92;32.21
55517;BME280;41724;51.176;-0.708;2022-09-28T11:46:05;99623.48;;;17.55;32.44
55517;BME280;41724;51.176;-0.708;2022-09-28T11:48:39;99624.07;;;18.68;34.69
55517;BME280;41724;51.176;-0.708;2022-09-28T11:51:11;99620.19;;;17.68;33.68
55517;BME280;41724;51.176;-0.708;2022-09-28T11:53:48;99614.79;;;17.50;33.75
55517;BME280;41724;51.176;-0.708;2022-09-28T11:56:31;99615.76;;;17.98;33.08
55517;BME280;41724;51.176;-0.708;2022-09-28T11:59:05;99610.75;;;18.05;33.78
55517;BME280;41724;51.176;-0.708;2022-09-28T12:01:41;99608.91;;;18.81;34.33
55517;BME280;41724;51.176;-0.708;2022-09-28T12:04:12;99608.60;;;19.29;33.22
55517;BME280;41724;51.176;-0.708;2022-09-28T12:06:48;99607.10;;;19.29;32.68
55517;BME280;41724;51.176;-0.708;2022-09-28T12:09:20;99607.98;;;19.20;32.45
55517;BME280;41724;51.176;-0.708;2022-09-28T12:11:53;99609.10;;;19.31;31.32
55517;BME280;41724;51.176;-0.708;2022-09-28T12:14:25;99615.17;;;18.18;31.95
55517;BME280;41724;51.176;-0.708;2022-09-28T12:16:58;99614.47;;;17.73;33.28
55517;BME280;41724;51.176;-0.708;2022-09-28T12:19:32;99611.52;;;18.77;33.26
55517;BME280;41724;51.176;-0.708;2022-09-28T12:22:08;99601.08;;;18.73;33.26
55517;BME280;41724;51.176;-0.708;2022-09-28T12:24:40;99603.77;;;19.37;32.66
55517;BME280;41724;51.176;-0.708;2022-09-28T12:27:16;99597.08;;;18.43;32.00
55517;BME280;41724;51.176;-0.708;2022-09-28T12:29:54;99594.04;;;17.81;31.85
55517;BME280;41724;51.176;-0.708;2022-09-28T12:32:29;99597.70;;;18.30;32.52
55517;BME280;41724;51.176;-0.708;2022-09-28T12:35:00;99585.75;;;17.52;33.32
55517;BME280;41724;51.176;-0.708;2022-09-28T12:37:38;99587.10;;;19.35;32.35
55517;BME280;41724;51.176;-0.708;2022-09-28T12:40:29;99589.96;;;19.31;31.08
55517;BME280;41724;51.176;-0.708;2022-09-28T12:43:07;99581.38;;;20.41;31.59
55517;BME280;41724;51.176;-0.708;2022-09-28T12:45:55;99580.12;;;20.31;30.25
55517;BME280;41724;51.176;-0.708;2022-09-28T12:48:38;99577.44;;;20.41;30.72
55517;BME280;41724;51.176;-0.708;2022-09-28T12:51:15;99576.21;;;20.80;30.90
55517;BME280;41724;51.176;-0.708;2022-09-28T12:53:59;99578.51;;;20.78;29.51
55517;BME280;41724;51.176;-0.708;2022-09-28T12:56:36;99578.70;;;20.61;30.29
55517;BME280;41724;51.176;-0.708;2022-09-28T12:59:18;99580.74;;;20.34;29.66
55517;BME280;41724;51.176;-0.708;2022-09-28T13:02:06;99581.15;;;20.44;29.38
55517;BME280;41724;51.176;-0.708;2022-09-28T13:05:02;99577.24;;;20.36;29.66
55517;BME280;41724;51.176;-0.708;2022-09-28T13:07:41;99574.37;;;20.23;30.20
55517;BME280;41724;51.176;-0.708;2022-09-28T13:10:20;99575.08;;;20.30;30.70
55517;BME280;41724;51.176;-0.708;2022-09-28T13:13:04;99575.90;;;20.15;29.49